sensor_id;sensor_type;location;lat;lon;timestamp;pressure;altitude;pressure_sealevel;temperature;humidity
9277;BME280;4676;42.678;23.244;2023-01-23T00:01:16;94455.53;;;8.23;100.00
9277;BME280;4676;42.678;23.244;2023-01-23T00:03:43;94463.22;;;8.18;100.00
9277;BME280;4676;42.678;23.244;2023-01-23T00:06:12;94469.97;;;8.18;100.00
9277;BME280;4676;42.678;23.244;2023-01-23T00:08:40;94474.94;;;8.21;100.00
9277;BME280;4676;42.678;23.244;2023-01-23T00:11:08;94476.69;;;8.19;100.00
9277;BME280;4676;42.678;23.244;2023-01-23T00:13:37;94473.06;;;8.27;100.00
9277;BME280;4676;42.678;23.244;2023-01-23T00:16:05;94474.78;;;8.28;100.00
9277;BME280;4676;42.678;23.244;2023-01-23T00:18:32;94469.69;;;8.30;100.00
9277;BME280;4676;42.678;23.244;2023-01-23T00:21:03;94473.84;;;8.32;100.00
9277;BME280;4676;42.678;23.244;2023-01-23T00:23:30;94467.13;;;8.31;100.00
9277;BME280;4676;42.678;23.244;2023-01-23T00:26:01;94476.28;;;8.35;100.00
9277;BME280;4676;42.678;23.244;2023-01-23T00:28:28;94472.75;;;8.41;100.00
9277;BME280;4676;42.678;23.244;2023-01-23T00:31:03;94459.53;;;8.33;100.00
9277;BME280;4676;42.678;23.244;2023-01-23T00:33:30;94470.97;;;8.44;100.00
9277;BME280;4676;42.678;23.244;2023-01-23T00:35:56;94480.50;;;8.35;100.00
9277;BME280;4676;42.678;23.244;2023-01-23T00:38:23;94484.63;;;8.37;100.00
9277;BME280;4676;42.678;23.244;2023-01-23T00:40:50;94479.66;;;8.34;100.00
9277;BME280;4676;42.678;23.244;2023-01-23T00:43:18;94481.50;;;8.29;100.00
9277;BME280;4676;42.678;23.244;2023-01-23T00:45:45;94481.41;;;8.32;100.00
9277;BME280;4676;42.678;23.244;2023-01-23T00:48:13;94492.47;;;8.27;100.00
9277;BME280;4676;42.678;23.244;2023-01-23T00:50:40;94479.19;;;8.19;100.00
9277;BME280;4676;42.678;23.244;2023-01-23T00:53:07;94489.13;;;8.25;100.00
9277;BME280;4676;42.678;23.244;2023-01-23T00:55:33;94487.44;;;8.25;100.00
9277;BME280;4676;42.678;23.244;2023-01-23T00:58:00;94490.84;;;8.24;100.00
9277;BME280;4676;42.678;23.244;2023-01-23T01:00:27;94485.00;;;8.22;100.00
9277;BME280;4676;42.678;23.244;2023-01-23T01:02:54;94479.97;;;8.22;100.00
9277;BME280;4676;42.678;23.244;2023-01-23T01:05:22;94472.81;;;8.06;100.00
9277;BME280;4676;42.678;23.244;2023-01-23T01:07:49;94464.34;;;8.07;100.00
9277;BME280;4676;42.678;23.244;2023-01-23T01:10:16;94469.44;;;8.05;100.00
9277;BME280;4676;42.678;23.244;2023-01-23T01:12:42;94468.53;;;8.08;100.00
9277;BME280;4676;42.678;23.244;2023-01-23T01:15:11;94473.75;;;8.00;100.00
9277;BME280;4676;42.678;23.244;2023-01-23T01:17:38;94477.13;;;8.00;100.00
9277;BME280;4676;42.678;23.244;2023-01-23T01:20:06;94468.69;;;8.01;100.00
9277;BME280;4676;42.678;23.244;2023-01-23T01:22:34;94483.84;;;8.00;100.00
9277;BME280;4676;42.678;23.244;2023-01-23T01:25:01;94488.16;;;7.96;100.00
9277;BME280;4676;42.678;23.244;2023-01-23T01:27:28;94498.25;;;7.96;100.00
9277;BME280;4676;42.678;23.244;2023-01-23T01:29:54;94494.88;;;7.96;100.00
9277;BME280;4676;42.678;23.244;2023-01-23T01:32:21;94500.78;;;7.96;100.00
9277;BME280;4676;42.678;23.244;2023-01-23T01:34:50;94503.13;;;8.02;100.00
9277;BME280;4676;42.678;23.244;2023-01-23T01:37:17;94488.88;;;8.01;100.00
9277;BME280;4676;42.678;23.244;2023-01-23T01:39:45;94483.72;;;8.06;100.00
9277;BME280;4676;42.678;23.244;2023-01-23T01:42:12;94498.72;;;8.12;100.00
9277;BME280;4676;42.678;23.244;2023-01-23T01:44:52;94502.00;;;8.16;100.00
9277;BME280;4676;42.678;23.244;2023-01-23T01:47:19;94500.16;;;8.22;100.00
9277;BME280;4676;42.678;23.244;2023-01-23T01:49:45;94503.38;;;8.27;100.00
9277;BME280;4676;42.678;23.244;2023-01-23T01:52:13;94498.31;;;8.27;100.00
9277;BME280;4676;42.678;23.244;2023-01-23T01:54:43;94507.56;;;8.30;100.00
9277;BME280;4676;42.678;23.244;2023-01-23T01:57:17;94501.63;;;8.31;100.00
9277;BME280;4676;42.678;23.244;2023-01-23T01:59:47;94501.63;;;8.31;100.00
9277;BME280;4676;42.678;23.244;2023-01-23T02:02:18;94496.50;;;8.34;100.00
9277;BME280;4676;42.678;23.244;2023-01-23T02:04:47;94501.50;;;8.37;100.00
9277;BME280;4676;42.678;23.244;2023-01-23T02:07:20;94506.69;;;8.31;100.00
9277;BME280;4676;42.678;23.244;2023-01-23T02:09:48;94508.44;;;8.27;100.00
9277;BME280;4676;42.678;23.244;2023-01-23T02:12:16;94507.50;;;8.33;100.00
9277;BME280;4676;42.678;23.244;2023-01-23T02:14:42;94499.78;;;8.37;100.00
9277;BME280;4676;42.678;23.244;2023-01-23T02:17:09;94504.81;;;8.39;100.00
9277;BME280;4676;42.678;23.244;2023-01-23T02:19:43;94493.97;;;8.35;100.00
9277;BME280;4676;42.678;23.244;2023-01-23T02:22:22;94493.13;;;8.35;100.00
9277;BME280;4676;42.678;23.244;2023-01-23T02:24:58;94492.44;;;8.30;100.00
9277;BME280;4676;42.678;23.244;2023-01-23T02:27:29;94501.56;;;8.34;100.00
9277;BME280;4676;42.678;23.244;2023-01-23T02:29:56;94501.75;;;8.26;100.00
9277;BME280;4676;42.678;23.244;2023-01-23T02:32:24;94499.41;;;8.19;100.00
9277;BME280;4676;42.678;23.244;2023-01-23T02:34:53;94495.13;;;8.21;100.00
9277;BME280;4676;42.678;23.244;2023-01-23T02:37:23;94498.47;;;8.23;100.00
9277;BME280;4676;42.678;23.244;2023-01-23T02:39:54;94494.50;;;8.13;100.00
9277;BME280;4676;42.678;23.244;2023-01-23T02:42:21;94496.28;;;8.09;100.00
9277;BME280;4676;42.678;23.244;2023-01-23T02:44:50;94498.81;;;8.08;100.00
9277;BME280;4676;42.678;23.244;2023-01-23T02:47:18;94498.94;;;8.03;100.00
9277;BME280;4676;42.678;23.244;2023-01-23T02:49:44;94503.13;;;8.02;100.00
9277;BME280;4676;42.678;23.244;2023-01-23T02:52:11;94489.91;;;7.94;100.00
9277;BME280;4676;42.678;23.244;2023-01-23T02:54:38;94503.38;;;7.92;100.00
9277;BME280;4676;42.678;23.244;2023-01-23T02:57:05;94501.00;;;7.87;100.00
9277;BME280;4676;42.678;23.244;2023-01-23T02:59:32;94500.06;;;7.91;100.00
9277;BME280;4676;42.678;23.244;2023-01-23T03:02:17;94496.72;;;7.91;100.00
9277;BME280;4676;42.678;23.244;2023-01-23T03:04:44;94506.06;;;7.86;100.00
9277;BME280;4676;42.678;23.244;2023-01-23T03:07:11;94516.13;;;7.87;100.00
9277;BME280;4676;42.678;23.244;2023-01-23T03:09:37;94523.72;;;7.86;100.00
9277;BME280;4676;42.678;23.244;2023-01-23T03:12:04;94513.63;;;7.87;100.00
9277;BME280;4676;42.678;23.244;2023-01-23T03:14:31;94510.19;;;7.88;100.00
9277;BME280;4676;42.678;23.244;2023-01-23T03:16:59;94516.13;;;7.87;100.00
9277;BME280;4676;42.678;23.244;2023-01-23T03:19:27;94514.50;;;7.85;100.00
9277;BME280;4676;42.678;23.244;2023-01-23T03:21:53;94525.50;;;7.82;100.00
9277;BME280;4676;42.678;23.244;2023-01-23T03:24:20;94499.03;;;7.63;100.00
9277;BME280;4676;42.678;23.244;2023-01-23T03:26:48;94512.84;;;7.84;100.00
9277;BME280;4676;42.678;23.244;2023-01-23T03:29:16;94507.84;;;7.82;100.00
9277;BME280;4676;42.678;23.244;2023-01-23T03:32:01;94502.84;;;7.79;100.00
9277;BME280;4676;42.678;23.244;2023-01-23T03:34:30;94510.53;;;7.75;100.00
9277;BME280;4676;42.678;23.244;2023-01-23T03:36:56;94514.69;;;7.77;100.00
9277;BME280;4676;42.678;23.244;2023-01-23T03:39:24;94523.19;;;7.73;100.00
9277;BME280;4676;42.678;23.244;2023-01-23T03:42:08;94522.28;;;7.76;100.00
9277;BME280;4676;42.678;23.244;2023-01-23T03:44:35;94511.44;;;7.71;100.00
9277;BME280;4676;42.678;23.244;2023-01-23T03:47:02;94521.44;;;7.77;100.00
9277;BME280;4676;42.678;23.244;2023-01-23T03:49:31;94526.50;;;7.75;100.00
9277;BME280;4676;42.678;23.244;2023-01-23T03:51:58;94519.78;;;7.74;100.00
9277;BME280;4676;42.678;23.244;2023-01-23T03:54:25;94522.34;;;7.73;100.00
9277;BME280;4676;42.678;23.244;2023-01-23T03:56:51;94518.84;;;7.78;100.00
9277;BME280;4676;42.678;23.244;2023-01-23T03:59:18;94513.81;;;7.78;100.00
9277;BME280;4676;42.678;23.244;2023-01-23T04:01:45;94523.13;;;7.75;100.00
9277;BME280;4676;42.678;23.244;2023-01-23T04:04:13;94517.31;;;7.71;100.00
9277;BME280;4676;42.678;23.244;2023-01-23T04:06:41;94524.03;;;7.74;100.00
9277;BME280;4676;42.678;23.244;2023-01-23T04:09:08;94520.53;;;7.78;100.00
9277;BME280;4676;42.678;23.244;2023-01-23T04:11:34;94525.78;;;7.70;100.00
9277;BME280;4676;42.678;23.244;2023-01-23T04:14:01;94525.78;;;7.70;100.00
9277;BME280;4676;42.678;23.244;2023-01-23T04:16:28;94521.53;;;7.71;100.00
9277;BME280;4676;42.678;23.244;2023-01-23T04:18:54;94535.81;;;7.73;100.00
9277;BME280;4676;42.678;23.244;2023-01-23T04:21:21;94535.00;;;7.71;100.00
9277;BME280;4676;42.678;23.244;2023-01-23T04:23:49;94528.47;;;7.63;100.00
9277;BME280;4676;42.678;23.244;2023-01-23T04:26:16;94522.44;;;7.68;100.00
9277;BME280;4676;42.678;23.244;2023-01-23T04:28:43;94529.31;;;7.63;100.00
9277;BME280;4676;42.678;23.244;2023-01-23T04:31:10;94535.16;;;7.64;100.00
9277;BME280;4676;42.678;23.244;2023-01-23T04:33:37;94539.38;;;7.63;100.00
9277;BME280;4676;42.678;23.244;2023-01-23T04:36:05;94552.78;;;7.67;100.00
9277;BME280;4676;42.678;23.244;2023-01-23T04:38:32;94564.47;;;7.69;100.00
9277;BME280;4676;42.678;23.244;2023-01-23T04:41:00;94552.09;;;7.59;100.00
9277;BME280;4676;42.678;23.244;2023-01-23T04:43:27;94557.84;;;7.65;100.00
9277;BME280;4676;42.678;23.244;2023-01-23T04:45:55;94552.16;;;7.56;100.00
9277;BME280;4676;42.678;23.244;2023-01-23T04:48:22;94565.38;;;7.67;100.00
9277;BME280;4676;42.678;23.244;2023-01-23T04:50:49;94569.66;;;7.63;100.00
9277;BME280;4676;42.678;23.244;2023-01-23T04:53:16;94550.28;;;7.64;100.00
9277;BME280;4676;42.678;23.244;2023-01-23T04:55:48;94553.69;;;7.63;100.00
9277;BME280;4676;42.678;23.244;2023-01-23T04:58:17;94540.47;;;7.51;100.00
9277;BME280;4676;42.678;23.244;2023-01-23T05:00:45;94554.94;;;7.82;100.00
9277;BME280;4676;42.678;23.244;2023-01-23T05:03:12;94551.81;;;8.09;100.00
9277;BME280;4676;42.678;23.244;2023-01-23T05:05:39;94552.81;;;8.02;100.00
9277;BME280;4676;42.678;23.244;2023-01-23T05:08:07;94554.53;;;8.00;100.00
9277;BME280;4676;42.678;23.244;2023-01-23T05:10:34;94558.06;;;7.93;100.00
9277;BME280;4676;42.678;23.244;2023-01-23T05:13:01;94574.16;;;7.87;100.00
9277;BME280;4676;42.678;23.244;2023-01-23T05:15:29;94573.59;;;7.75;100.00
9277;BME280;4676;42.678;23.244;2023-01-23T05:17:55;94568.59;;;7.73;100.00
9277;BME280;4676;42.678;23.244;2023-01-23T05:20:22;94589.78;;;7.66;100.00
9277;BME280;4676;42.678;23.244;2023-01-23T05:22:49;94585.56;;;7.65;100.00
9277;BME280;4676;42.678;23.244;2023-01-23T05:25:20;94597.34;;;7.65;100.00
9277;BME280;4676;42.678;23.244;2023-01-23T05:27:47;94604.19;;;7.60;100.00
9277;BME280;4676;42.678;23.244;2023-01-23T05:30:14;94609.25;;;7.58;100.00
9277;BME280;4676;42.678;23.244;2023-01-23T05:32:42;94611.78;;;7.58;100.00
9277;BME280;4676;42.678;23.244;2023-01-23T05:35:09;94609.19;;;7.61;100.00
9277;BME280;4676;42.678;23.244;2023-01-23T05:37:36;94610.88;;;7.61;100.00
9277;BME280;4676;42.678;23.244;2023-01-23T05:40:05;94617.47;;;7.68;100.00
9277;BME280;4676;42.678;23.244;2023-01-23T05:42:32;94607.53;;;7.60;100.00
9277;BME280;4676;42.678;23.244;2023-01-23T05:44:59;94599.94;;;7.63;100.00
9277;BME280;4676;42.678;23.244;2023-01-23T05:47:26;94597.41;;;7.62;100.00
9277;BME280;4676;42.678;23.244;2023-01-23T05:49:54;94597.28;;;7.68;100.00
9277;BME280;4676;42.678;23.244;2023-01-23T05:52:20;94595.72;;;7.62;100.00
9277;BME280;4676;42.678;23.244;2023-01-23T05:54:47;94589.84;;;7.63;100.00
9277;BME280;4676;42.678;23.244;2023-01-23T05:57:14;94578.78;;;7.69;100.00
9277;BME280;4676;42.678;23.244;2023-01-23T05:59:41;94560.56;;;7.56;100.00
9277;BME280;4676;42.678;23.244;2023-01-23T06:02:08;94585.56;;;7.67;100.00
9277;BME280;4676;42.678;23.244;2023-01-23T06:04:35;94589.66;;;7.71;100.00
9277;BME280;4676;42.678;23.244;2023-01-23T06:07:03;94608.16;;;7.71;100.00
9277;BME280;4676;42.678;23.244;2023-01-23T06:09:30;94599.94;;;7.63;100.00
9277;BME280;4676;42.678;23.244;2023-01-23T06:11:57;94600.69;;;7.67;100.00
9277;BME280;4676;42.678;23.244;2023-01-23T06:14:24;94607.34;;;7.69;100.00
9277;BME280;4676;42.678;23.244;2023-01-23T06:16:50;94615.63;;;7.76;100.00
9277;BME280;4676;42.678;23.244;2023-01-23T06:19:17;94619.13;;;7.70;100.00
9277;BME280;4676;42.678;23.244;2023-01-23T06:21:44;94626.56;;;7.75;100.00
9277;BME280;4676;42.678;23.244;2023-01-23T06:24:12;94628.16;;;7.80;100.00
9277;BME280;4676;42.678;23.244;2023-01-23T06:26:39;94629.94;;;7.75;100.00
9277;BME280;4676;42.678;23.244;2023-01-23T06:29:05;94620.69;;;7.74;100.00
9277;BME280;4676;42.678;23.244;2023-01-23T06:31:32;94618.22;;;7.71;100.00
9277;BME280;4676;42.678;23.244;2023-01-23T06:33:59;94617.50;;;7.66;100.00
9277;BME280;4676;42.678;23.244;2023-01-23T06:36:26;94619.06;;;7.72;100.00
9277;BME280;4676;42.678;23.244;2023-01-23T06:38:52;94614.09;;;7.69;100.00
9277;BME280;4676;42.678;23.244;2023-01-23T06:41:21;94626.69;;;7.70;100.00
9277;BME280;4676;42.678;23.244;2023-01-23T06:43:48;94629.28;;;7.66;100.00
9277;BME280;4676;42.678;23.244;2023-01-23T06:46:15;94635.09;;;7.69;100.00
9277;BME280;4676;42.678;23.244;2023-01-23T06:48:42;94635.03;;;7.72;100.00
9277;BME280;4676;42.678;23.244;2023-01-23T06:51:08;94644.28;;;7.73;100.00
9277;BME280;4676;42.678;23.244;2023-01-23T06:53:35;94649.31;;;7.73;100.00
9277;BME280;4676;42.678;23.244;2023-01-23T06:56:05;94659.34;;;7.76;100.00
9277;BME280;4676;42.678;23.244;2023-01-23T06:58:34;94664.53;;;7.69;100.00
9277;BME280;4676;42.678;23.244;2023-01-23T07:01:07;94662.94;;;7.65;100.00
9277;BME280;4676;42.678;23.244;2023-01-23T07:03:34;94677.34;;;7.60;100.00
9277;BME280;4676;42.678;23.244;2023-01-23T07:06:01;94685.69;;;7.63;100.00
9277;BME280;4676;42.678;23.244;2023-01-23T07:08:30;94687.38;;;7.61;100.00
9277;BME280;4676;42.678;23.244;2023-01-23T07:10:57;94682.56;;;7.50;100.00
9277;BME280;4676;42.678;23.244;2023-01-23T07:13:24;94691.00;;;7.48;100.00
9277;BME280;4676;42.678;23.244;2023-01-23T07:15:52;94684.50;;;7.36;100.00
9277;BME280;4676;42.678;23.244;2023-01-23T07:18:19;94684.41;;;7.41;100.00
9277;BME280;4676;42.678;23.244;2023-01-23T07:20:46;94699.59;;;7.38;100.00
9277;BME280;4676;42.678;23.244;2023-01-23T07:23:14;94663.78;;;7.21;100.00
9277;BME280;4676;42.678;23.244;2023-01-23T07:25:41;94697.16;;;7.35;100.00
9277;BME280;4676;42.678;23.244;2023-01-23T07:28:08;94692.06;;;7.36;100.00
9277;BME280;4676;42.678;23.244;2023-01-23T07:30:35;94695.59;;;7.28;100.00
9277;BME280;4676;42.678;23.244;2023-01-23T07:33:03;94688.84;;;7.28;100.00
9277;BME280;4676;42.678;23.244;2023-01-23T07:35:30;94686.56;;;7.16;100.00
9277;BME280;4676;42.678;23.244;2023-01-23T07:37:57;94699.03;;;7.22;100.00
9277;BME280;4676;42.678;23.244;2023-01-23T07:40:24;94687.31;;;7.21;100.00
9277;BME280;4676;42.678;23.244;2023-01-23T07:42:51;94694.94;;;7.17;100.00
9277;BME280;4676;42.678;23.244;2023-01-23T07:45:17;94697.53;;;7.14;100.00
9277;BME280;4676;42.678;23.244;2023-01-23T07:47:44;94700.16;;;7.06;100.00
9277;BME280;4676;42.678;23.244;2023-01-23T07:50:14;94701.75;;;7.12;100.00
9277;BME280;4676;42.678;23.244;2023-01-23T07:52:40;94703.41;;;7.14;100.00
9277;BME280;4676;42.678;23.244;2023-01-23T07:55:08;94700.91;;;7.13;100.00
9277;BME280;4676;42.678;23.244;2023-01-23T07:57:35;94706.72;;;7.15;100.00
9277;BME280;4676;42.678;23.244;2023-01-23T08:00:02;94703.47;;;7.10;100.00
9277;BME280;4676;42.678;23.244;2023-01-23T08:02:29;94704.25;;;7.13;100.00
9277;BME280;4676;42.678;23.244;2023-01-23T08:04:56;94719.19;;;7.24;100.00
9277;BME280;4676;42.678;23.244;2023-01-23T08:07:24;94705.75;;;7.23;100.00
9277;BME280;4676;42.678;23.244;2023-01-23T08:09:51;94704.91;;;7.24;100.00
9277;BME280;4676;42.678;23.244;2023-01-23T08:12:17;94717.34;;;7.32;100.00
9277;BME280;4676;42.678;23.244;2023-01-23T08:14:45;94717.91;;;7.47;100.00
9277;BME280;4676;42.678;23.244;2023-01-23T08:17:13;94727.75;;;7.61;100.00
9277;BME280;4676;42.678;23.244;2023-01-23T08:19:40;94734.41;;;7.64;100.00
9277;BME280;4676;42.678;23.244;2023-01-23T08:22:06;94744.50;;;7.65;100.00
9277;BME280;4676;42.678;23.244;2023-01-23T08:24:34;94750.38;;;7.66;100.00
9277;BME280;4676;42.678;23.244;2023-01-23T08:27:01;94760.28;;;7.76;100.00
9277;BME280;4676;42.678;23.244;2023-01-23T08:29:29;94746.06;;;7.71;100.00
9277;BME280;4676;42.678;23.244;2023-01-23T08:31:56;94757.88;;;7.69;100.00
9277;BME280;4676;42.678;23.244;2023-01-23T08:34:23;94749.56;;;7.64;100.00
9277;BME280;4676;42.678;23.244;2023-01-23T08:36:49;94745.47;;;7.57;100.00
9277;BME280;4676;42.678;23.244;2023-01-23T08:39:16;94744.69;;;7.53;100.00
9277;BME280;4676;42.678;23.244;2023-01-23T08:41:45;94743.94;;;7.49;100.00
9277;BME280;4676;42.678;23.244;2023-01-23T08:44:12;94734.88;;;7.39;100.00
9277;BME280;4676;42.678;23.244;2023-01-23T08:46:39;94744.03;;;7.43;100.00
9277;BME280;4676;42.678;23.244;2023-01-23T08:49:05;94745.00;;;7.38;100.00
9277;BME280;4676;42.678;23.244;2023-01-23T08:51:32;94741.59;;;7.39;100.00
9277;BME280;4676;42.678;23.244;2023-01-23T08:53:59;94723.94;;;7.40;100.00
9277;BME280;4676;42.678;23.244;2023-01-23T08:56:25;94738.28;;;7.35;100.00
9277;BME280;4676;42.678;23.244;2023-01-23T08:58:53;94734.00;;;7.40;100.00
9277;BME280;4676;42.678;23.244;2023-01-23T09:01:22;94738.06;;;7.49;100.00
9277;BME280;4676;42.678;23.244;2023-01-23T09:03:49;94732.25;;;7.45;100.00
9277;BME280;4676;42.678;23.244;2023-01-23T09:06:18;94748.16;;;7.49;100.00
9277;BME280;4676;42.678;23.244;2023-01-23T09:08:45;94741.50;;;7.45;100.00
9277;BME280;4676;42.678;23.244;2023-01-23T09:11:12;94737.31;;;7.45;100.00
9277;BME280;4676;42.678;23.244;2023-01-23T09:13:39;94731.47;;;7.42;100.00
9277;BME280;4676;42.678;23.244;2023-01-23T09:16:08;94735.63;;;7.43;100.00
9277;BME280;4676;42.678;23.244;2023-01-23T09:18:35;94729.63;;;7.50;100.00
9277;BME280;4676;42.678;23.244;2023-01-23T09:21:05;94732.16;;;7.50;100.00
9277;BME280;4676;42.678;23.244;2023-01-23T09:23:33;94738.03;;;7.52;100.00
9277;BME280;4676;42.678;23.244;2023-01-23T09:26:04;94732.22;;;7.47;100.00
9277;BME280;4676;42.678;23.244;2023-01-23T09:28:31;94733.56;;;7.65;100.00
9277;BME280;4676;42.678;23.244;2023-01-23T09:31:01;94742.53;;;7.81;100.00
9277;BME280;4676;42.678;23.244;2023-01-23T09:33:29;94699.91;;;7.66;100.00
9277;BME280;4676;42.678;23.244;2023-01-23T09:35:56;94732.56;;;7.73;100.00
9277;BME280;4676;42.678;23.244;2023-01-23T09:38:23;94737.47;;;7.81;100.00
9277;BME280;4676;42.678;23.244;2023-01-23T09:40:51;94742.72;;;7.70;100.00
9277;BME280;4676;42.678;23.244;2023-01-23T09:43:22;94746.94;;;7.70;100.00
9277;BME280;4676;42.678;23.244;2023-01-23T09:45:57;94751.88;;;7.74;100.00
9277;BME280;4676;42.678;23.244;2023-01-23T09:48:30;94751.06;;;7.74;100.00
9277;BME280;4676;42.678;23.244;2023-01-23T09:51:03;94751.09;;;7.72;100.00
9277;BME280;4676;42.678;23.244;2023-01-23T09:53:34;94761.19;;;7.72;100.00
9277;BME280;4676;42.678;23.244;2023-01-23T09:56:09;94746.44;;;7.51;100.00
9277;BME280;4676;42.678;23.244;2023-01-23T09:58:43;94774.19;;;7.51;100.00
9277;BME280;4676;42.678;23.244;2023-01-23T10:01:12;94760.06;;;7.41;100.00
9277;BME280;4676;42.678;23.244;2023-01-23T10:03:40;94763.31;;;7.46;100.00
9277;BME280;4676;42.678;23.244;2023-01-23T10:06:17;94760.91;;;7.41;100.00
9277;BME280;4676;42.678;23.244;2023-01-23T10:08:59;94758.50;;;7.34;100.00
9277;BME280;4676;42.678;23.244;2023-01-23T10:11:38;94761.03;;;7.34;100.00
9277;BME280;4676;42.678;23.244;2023-01-23T10:14:19;94757.59;;;7.38;100.00
9277;BME280;4676;42.678;23.244;2023-01-23T10:16:59;94758.53;;;7.32;100.00
9277;BME280;4676;42.678;23.244;2023-01-23T10:19:41;94757.75;;;7.29;100.00
9277;BME280;4676;42.678;23.244;2023-01-23T10:22:23;94762.94;;;7.21;100.00
9277;BME280;4676;42.678;23.244;2023-01-23T10:24:53;94765.41;;;7.24;100.00
9277;BME280;4676;42.678;23.244;2023-01-23T10:27:22;94758.69;;;7.22;100.00
9277;BME280;4676;42.678;23.244;2023-01-23T10:29:51;94765.53;;;7.15;100.00
9277;BME280;4676;42.678;23.244;2023-01-23T10:32:23;94766.34;;;7.17;100.00
9277;BME280;4676;42.678;23.244;2023-01-23T10:34:58;94761.31;;;7.17;100.00
9277;BME280;4676;42.678;23.244;2023-01-23T10:39:58;94768.94;;;7.14;100.00
9277;BME280;4676;42.678;23.244;2023-01-23T10:42:26;94762.44;;;6.99;100.00
9277;BME280;4676;42.678;23.244;2023-01-23T10:44:52;94759.91;;;6.99;100.00
9277;BME280;4676;42.678;23.244;2023-01-23T10:47:24;94745.88;;;6.83;100.00
9277;BME280;4676;42.678;23.244;2023-01-23T10:49:56;94755.28;;;6.74;100.00
9277;BME280;4676;42.678;23.244;2023-01-23T10:52:34;94745.34;;;6.62;100.00
9277;BME280;4676;42.678;23.244;2023-01-23T10:55:02;94754.31;;;6.81;100.00
9277;BME280;4676;42.678;23.244;2023-01-23T10:57:41;94748.34;;;6.86;100.00
9277;BME280;4676;42.678;23.244;2023-01-23T11:00:20;94752.44;;;6.93;100.00
9277;BME280;4676;42.678;23.244;2023-01-23T11:02:47;94752.47;;;6.92;100.00
9277;BME280;4676;42.678;23.244;2023-01-23T11:05:35;94749.91;;;6.95;100.00
9277;BME280;4676;42.678;23.244;2023-01-23T11:08:03;94760.81;;;6.94;100.00
9277;BME280;4676;42.678;23.244;2023-01-23T11:10:46;94765.03;;;6.93;100.00
9277;BME280;4676;42.678;23.244;2023-01-23T11:13:25;94765.81;;;6.98;100.00
9277;BME280;4676;42.678;23.244;2023-01-23T11:15:52;94744.88;;;6.93;100.00
9277;BME280;4676;42.678;23.244;2023-01-23T11:18:29;94768.28;;;7.01;100.00
9277;BME280;4676;42.678;23.244;2023-01-23T11:20:59;94759.16;;;6.94;100.00
9277;BME280;4676;42.678;23.244;2023-01-23T11:23:26;94766.13;;;6.79;100.00
9277;BME280;4676;42.678;23.244;2023-01-23T11:25:55;94760.22;;;6.80;100.00
9277;BME280;4676;42.678;23.244;2023-01-23T11:28:24;94729.63;;;6.47;100.00
9277;BME280;4676;42.678;23.244;2023-01-23T11:30:56;94747.09;;;6.58;100.00
9277;BME280;4676;42.678;23.244;2023-01-23T11:33:38;94735.47;;;6.49;100.00
9277;BME280;4676;42.678;23.244;2023-01-23T11:36:19;94752.97;;;6.59;100.00
9277;BME280;4676;42.678;23.244;2023-01-23T11:38:52;94763.78;;;6.67;100.00
9277;BME280;4676;42.678;23.244;2023-01-23T11:41:22;94747.88;;;6.63;100.00
9277;BME280;4676;42.678;23.244;2023-01-23T11:43:53;94749.59;;;6.58;100.00
9277;BME280;4676;42.678;23.244;2023-01-23T11:46:39;94755.38;;;6.68;100.00
9277;BME280;4676;42.678;23.244;2023-01-23T11:49:35;94758.72;;;6.67;100.00
9277;BME280;4676;42.678;23.244;2023-01-23T11:52:22;94752.84;;;6.66;100.00
9277;BME280;4676;42.678;23.244;2023-01-23T11:55:08;94748.59;;;6.71;100.00
9277;BME280;4676;42.678;23.244;2023-01-23T11:57:45;94751.16;;;6.68;100.00
9277;BME280;4676;42.678;23.244;2023-01-23T12:00:27;94752.97;;;6.59;100.00
9277;BME280;4676;42.678;23.244;2023-01-23T12:03:16;94753.06;;;6.51;100.00
9277;BME280;4676;42.678;23.244;2023-01-23T12:05:55;94733.13;;;6.39;100.00
9277;BME280;4676;42.678;23.244;2023-01-23T12:08:34;94721.31;;;6.41;100.00
9277;BME280;4676;42.678;23.244;2023-01-23T12:11:10;94738.75;;;6.54;100.00
9277;BME280;4676;42.678;23.244;2023-01-23T12:13:52;94744.78;;;6.44;100.00
9277;BME280;4676;42.678;23.244;2023-01-23T12:16:27;94743.09;;;6.45;100.00
9277;BME280;4676;42.678;23.244;2023-01-23T12:19:09;94749.00;;;6.42;100.00
9277;BME280;4676;42.678;23.244;2023-01-23T12:21:45;94737.38;;;6.34;100.00
9277;BME280;4676;42.678;23.244;2023-01-23T12:24:27;94749.91;;;6.38;100.00
9277;BME280;4676;42.678;23.244;2023-01-23T12:27:11;94752.50;;;6.32;100.00
9277;BME280;4676;42.678;23.244;2023-01-23T12:29:54;94741.50;;;6.38;100.00
9277;BME280;4676;42.678;23.244;2023-01-23T12:32:38;94743.28;;;6.33;100.00
9277;BME280;4676;42.678;23.244;2023-01-23T12:35:22;94740.75;;;6.33;100.00
9277;BME280;4676;42.678;23.244;2023-01-23T12:38:05;94739.03;;;6.36;100.00
9277;BME280;4676;42.678;23.244;2023-01-23T12:40:39;94744.03;;;6.38;100.00
9277;BME280;4676;42.678;23.244;2023-01-23T12:43:10;94743.38;;;6.25;100.00
9277;BME280;4676;42.678;23.244;2023-01-23T12:45:42;94737.41;;;6.32;100.00
9277;BME280;4676;42.678;23.244;2023-01-23T12:48:15;94739.19;;;6.26;100.00
9277;BME280;4676;42.678;23.244;2023-01-23T12:50:47;94739.78;;;6.41;100.00
9277;BME280;4676;42.678;23.244;2023-01-23T12:53:17;94750.59;;;6.49;100.00
9277;BME280;4676;42.678;23.244;2023-01-23T12:55:52;94746.34;;;6.51;100.00
9277;BME280;4676;42.678;23.244;2023-01-23T12:58:22;94748.84;;;6.53;100.00
9277;BME280;4676;42.678;23.244;2023-01-23T13:01:03;94745.56;;;6.48;100.00
9277;BME280;4676;42.678;23.244;2023-01-23T13:03:43;94759.81;;;6.50;100.00
9277;BME280;4676;42.678;23.244;2023-01-23T13:06:25;94754.78;;;6.50;100.00
9277;BME280;4676;42.678;23.244;2023-01-23T13:08:56;94752.28;;;6.47;100.00
9277;BME280;4676;42.678;23.244;2023-01-23T13:11:37;94759.81;;;6.49;100.00
9277;BME280;4676;42.678;23.244;2023-01-23T13:14:21;94760.81;;;6.39;100.00
9277;BME280;4676;42.678;23.244;2023-01-23T13:16:50;94764.16;;;6.38;100.00
9277;BME280;4676;42.678;23.244;2023-01-23T13:19:23;94756.75;;;6.29;100.00
9277;BME280;4676;42.678;23.244;2023-01-23T13:22:15;94766.78;;;6.32;100.00
9277;BME280;4676;42.678;23.244;2023-01-23T13:24:44;94764.22;;;6.35;100.00
9277;BME280;4676;42.678;23.244;2023-01-23T13:27:36;94750.78;;;6.36;100.00